Joliette, North Dakota
Current Conditions -  °F | °C
As of 4:55 PM on Tuesday 27 Jan 2015 (Local Time) from K2C8 Reporting Station
Haze Haze  
Wind Chill: 23°   Ceiling: 600
Heat Index: 32°   Visibility: 5mi
Dew Point: 30°   Wind: 13mph
Humidity: 93%   Direction: 160°SSE
Pressure: 29.92"   Gusts: 16mph
Location:  48.8466°N, 97.3026°W
Report Text: K2C8 272255Z AUTO 16011G14KT 5SM BR OVC006 00/M01 A2992 RMK AO2
Loading
Personal Weather Stations






























Interactive Weather Map New forecast layout! Learn more

10-Day Weather Forecast

Advertisements
Track Severe Weather on mobile